sensor_id;sensor_type;location;lat;lon;timestamp;pressure;altitude;pressure_sealevel;temperature;humidity
23619;BME280;18207;32.078;34.818;2024-01-30T00:01:20;101250.00;;;19.43;48.52
23619;BME280;18207;32.078;34.818;2024-01-30T00:03:52;101245.56;;;19.42;48.13
23619;BME280;18207;32.078;34.818;2024-01-30T00:06:22;101256.72;;;19.42;48.55
23619;BME280;18207;32.078;34.818;2024-01-30T00:08:51;101259.50;;;19.42;48.35
23619;BME280;18207;32.078;34.818;2024-01-30T00:11:21;101252.28;;;19.41;48.42
23619;BME280;18207;32.078;34.818;2024-01-30T00:13:53;101289.66;;;19.40;48.41
23619;BME280;18207;32.078;34.818;2024-01-30T00:16:25;101319.50;;;19.39;48.74
23619;BME280;18207;32.078;34.818;2024-01-30T00:18:57;101320.84;;;19.42;48.70
23619;BME280;18207;32.078;34.818;2024-01-30T00:21:27;101309.34;;;19.43;48.49
23619;BME280;18207;32.078;34.818;2024-01-30T00:23:56;101301.50;;;19.45;48.25
23619;BME280;18207;32.078;34.818;2024-01-30T00:26:26;101302.88;;;19.48;48.62
23619;BME280;18207;32.078;34.818;2024-01-30T00:28:55;101294.50;;;19.48;48.39
23619;BME280;18207;32.078;34.818;2024-01-30T00:31:25;101292.53;;;19.48;48.17
23619;BME280;18207;32.078;34.818;2024-01-30T00:33:56;101287.47;;;19.50;48.69
23619;BME280;18207;32.078;34.818;2024-01-30T00:36:26;101271.03;;;19.49;48.48
23619;BME280;18207;32.078;34.818;2024-01-30T00:38:57;101277.78;;;19.48;48.70
23619;BME280;18207;32.078;34.818;2024-01-30T00:41:27;101272.50;;;19.46;48.20
23619;BME280;18207;32.078;34.818;2024-01-30T00:43:56;101261.34;;;19.46;48.38
23619;BME280;18207;32.078;34.818;2024-01-30T00:46:26;101264.97;;;19.47;48.23
23619;BME280;18207;32.078;34.818;2024-01-30T00:48:57;101280.88;;;19.46;48.58
23619;BME280;18207;32.078;34.818;2024-01-30T00:51:28;101290.34;;;19.45;48.25
23619;BME280;18207;32.078;34.818;2024-01-30T00:53:58;101281.47;;;19.43;48.55
23619;BME280;18207;32.078;34.818;2024-01-30T00:56:28;101280.66;;;19.43;48.11
23619;BME280;18207;32.078;34.818;2024-01-30T00:58:58;101271.78;;;19.41;48.65
23619;BME280;18207;32.078;34.818;2024-01-30T01:01:28;101268.19;;;19.40;48.20
23619;BME280;18207;32.078;34.818;2024-01-30T01:03:59;101257.06;;;19.40;48.73
23619;BME280;18207;32.078;34.818;2024-01-30T01:06:29;101269.34;;;19.39;48.67
23619;BME280;18207;32.078;34.818;2024-01-30T01:08:58;101268.50;;;19.39;48.82
23619;BME280;18207;32.078;34.818;2024-01-30T01:11:31;101265.72;;;19.39;48.45
23619;BME280;18207;32.078;34.818;2024-01-30T01:14:01;101276.03;;;19.38;48.93
23619;BME280;18207;32.078;34.818;2024-01-30T01:16:31;101283.28;;;19.39;48.81
23619;BME280;18207;32.078;34.818;2024-01-30T01:19:02;101282.44;;;19.39;48.36
23619;BME280;18207;32.078;34.818;2024-01-30T01:21:32;101278.84;;;19.38;48.77
23619;BME280;18207;32.078;34.818;2024-01-30T01:24:04;101271.59;;;19.37;48.85
23619;BME280;18207;32.078;34.818;2024-01-30T01:26:34;101266.34;;;19.36;48.54
23619;BME280;18207;32.078;34.818;2024-01-30T01:29:03;101262.72;;;19.35;48.25
23619;BME280;18207;32.078;34.818;2024-01-30T01:31:37;101242.75;;;19.33;48.68
23619;BME280;18207;32.078;34.818;2024-01-30T01:34:13;101238.31;;;19.32;48.41
23619;BME280;18207;32.078;34.818;2024-01-30T01:36:43;101223.84;;;19.30;48.43
23619;BME280;18207;32.078;34.818;2024-01-30T01:39:13;101225.81;;;19.30;48.83
23619;BME280;18207;32.078;34.818;2024-01-30T01:41:42;101225.00;;;19.29;48.88
23619;BME280;18207;32.078;34.818;2024-01-30T01:44:12;101236.47;;;19.28;48.85
23619;BME280;18207;32.078;34.818;2024-01-30T01:46:42;101242.03;;;19.28;48.48
23619;BME280;18207;32.078;34.818;2024-01-30T01:49:14;101257.91;;;19.27;48.84
23619;BME280;18207;32.078;34.818;2024-01-30T01:51:51;101283.31;;;19.26;48.30
23619;BME280;18207;32.078;34.818;2024-01-30T01:54:25;101254.63;;;19.25;48.38
23619;BME280;18207;32.078;34.818;2024-01-30T01:56:56;101254.94;;;19.24;48.47
23619;BME280;18207;32.078;34.818;2024-01-30T01:59:25;101250.50;;;19.23;48.76
23619;BME280;18207;32.078;34.818;2024-01-30T02:01:56;101238.53;;;19.22;48.79
23619;BME280;18207;32.078;34.818;2024-01-30T02:04:28;101253.28;;;19.23;48.36
23619;BME280;18207;32.078;34.818;2024-01-30T02:06:57;101243.28;;;19.22;48.87
23619;BME280;18207;32.078;34.818;2024-01-30T02:09:28;101231.31;;;19.21;48.40
23619;BME280;18207;32.078;34.818;2024-01-30T02:11:57;101238.84;;;19.21;48.34
23619;BME280;18207;32.078;34.818;2024-01-30T02:14:27;101227.69;;;19.21;48.96
23619;BME280;18207;32.078;34.818;2024-01-30T02:16:58;101245.53;;;19.20;48.55
23619;BME280;18207;32.078;34.818;2024-01-30T02:19:29;101256.69;;;19.20;48.80
23619;BME280;18207;32.078;34.818;2024-01-30T02:22:01;101253.09;;;19.19;48.52
23619;BME280;18207;32.078;34.818;2024-01-30T02:24:31;101241.44;;;19.17;48.58
23619;BME280;18207;32.078;34.818;2024-01-30T02:27:01;101259.00;;;19.18;48.26
23619;BME280;18207;32.078;34.818;2024-01-30T02:29:30;101273.22;;;19.16;48.86
23619;BME280;18207;32.078;34.818;2024-01-30T02:32:00;101287.47;;;19.15;48.87
23619;BME280;18207;32.078;34.818;2024-01-30T02:34:29;101259.09;;;19.13;48.68
23619;BME280;18207;32.078;34.818;2024-01-30T02:37:01;101237.94;;;19.12;48.51
23619;BME280;18207;32.078;34.818;2024-01-30T02:39:30;101229.03;;;19.10;48.78
23619;BME280;18207;32.078;34.818;2024-01-30T02:42:00;101216.56;;;19.07;48.61
23619;BME280;18207;32.078;34.818;2024-01-30T02:44:29;101220.19;;;19.08;48.34
23619;BME280;18207;32.078;34.818;2024-01-30T02:46:59;101227.72;;;19.07;48.34
23619;BME280;18207;32.078;34.818;2024-01-30T02:49:29;101239.69;;;19.08;48.33
23619;BME280;18207;32.078;34.818;2024-01-30T02:52:00;101254.75;;;19.07;48.59
23619;BME280;18207;32.078;34.818;2024-01-30T02:54:30;101264.25;;;19.06;48.34
23619;BME280;18207;32.078;34.818;2024-01-30T02:57:00;101268.69;;;19.07;48.42
23619;BME280;18207;32.078;34.818;2024-01-30T02:59:43;101275.38;;;19.06;48.60
23619;BME280;18207;32.078;34.818;2024-01-30T03:02:12;101261.13;;;19.07;48.54
23619;BME280;18207;32.078;34.818;2024-01-30T03:04:42;101261.97;;;19.08;48.46
23619;BME280;18207;32.078;34.818;2024-01-30T03:07:13;101252.78;;;19.07;48.93
23619;BME280;18207;32.078;34.818;2024-01-30T03:09:44;101272.28;;;19.07;49.02
23619;BME280;18207;32.078;34.818;2024-01-30T03:12:14;101284.56;;;19.06;48.37
23619;BME280;18207;32.078;34.818;2024-01-30T03:14:43;101270.34;;;19.08;48.66
23619;BME280;18207;32.078;34.818;2024-01-30T03:17:13;101252.50;;;19.09;48.85
23619;BME280;18207;32.078;34.818;2024-01-30T03:19:42;101258.06;;;19.09;48.53
23619;BME280;18207;32.078;34.818;2024-01-30T03:22:14;101280.06;;;19.10;48.47
23619;BME280;18207;32.078;34.818;2024-01-30T03:24:44;101261.66;;;19.09;48.59
23619;BME280;18207;32.078;34.818;2024-01-30T03:27:14;101261.34;;;19.11;48.43
23619;BME280;18207;32.078;34.818;2024-01-30T03:29:43;101281.16;;;19.09;48.76
23619;BME280;18207;32.078;34.818;2024-01-30T03:32:13;101271.97;;;19.09;48.34
23619;BME280;18207;32.078;34.818;2024-01-30T03:34:43;101282.63;;;19.07;48.91
23619;BME280;18207;32.078;34.818;2024-01-30T03:37:28;101277.34;;;19.05;48.72
23619;BME280;18207;32.078;34.818;2024-01-30T03:39:58;101281.56;;;19.03;48.90
23619;BME280;18207;32.078;34.818;2024-01-30T03:42:27;101272.41;;;19.02;48.92
23619;BME280;18207;32.078;34.818;2024-01-30T03:44:57;101263.22;;;19.02;48.92
23619;BME280;18207;32.078;34.818;2024-01-30T03:47:26;101279.13;;;19.01;48.59
23619;BME280;18207;32.078;34.818;2024-01-30T03:49:56;101274.66;;;19.00;48.51
23619;BME280;18207;32.078;34.818;2024-01-30T03:52:28;101281.06;;;19.01;48.99
23619;BME280;18207;32.078;34.818;2024-01-30T03:54:58;101283.03;;;19.00;48.89
23619;BME280;18207;32.078;34.818;2024-01-30T03:57:27;101291.72;;;18.99;48.36
23619;BME280;18207;32.078;34.818;2024-01-30T03:59:57;101308.41;;;18.99;48.41
23619;BME280;18207;32.078;34.818;2024-01-30T04:02:30;101313.16;;;18.98;48.47
23619;BME280;18207;32.078;34.818;2024-01-30T04:04:59;101307.56;;;18.98;48.30
23619;BME280;18207;32.078;34.818;2024-01-30T04:07:31;101312.34;;;18.98;48.74
23619;BME280;18207;32.078;34.818;2024-01-30T04:10:01;101305.13;;;18.97;48.56
23619;BME280;18207;32.078;34.818;2024-01-30T04:12:33;101298.69;;;18.96;48.81
23619;BME280;18207;32.078;34.818;2024-01-30T04:15:04;101303.47;;;18.96;48.42
23619;BME280;18207;32.078;34.818;2024-01-30T04:17:34;101312.09;;;18.94;48.65
23619;BME280;18207;32.078;34.818;2024-01-30T04:20:04;101302.94;;;18.94;48.58
23619;BME280;18207;32.078;34.818;2024-01-30T04:22:36;101297.38;;;18.94;48.85
23619;BME280;18207;32.078;34.818;2024-01-30T04:25:06;101296.56;;;18.93;48.69
23619;BME280;18207;32.078;34.818;2024-01-30T04:27:36;101304.91;;;18.93;48.26
23619;BME280;18207;32.078;34.818;2024-01-30T04:30:07;101302.13;;;18.93;48.22
23619;BME280;18207;32.078;34.818;2024-01-30T04:32:37;101308.00;;;18.92;48.84
23619;BME280;18207;32.078;34.818;2024-01-30T04:35:07;101339.75;;;18.91;48.59
23619;BME280;18207;32.078;34.818;2024-01-30T04:37:40;101338.09;;;18.90;48.66
23619;BME280;18207;32.078;34.818;2024-01-30T04:40:23;101318.13;;;18.88;48.14
23619;BME280;18207;32.078;34.818;2024-01-30T04:42:53;101300.56;;;18.88;48.57
23619;BME280;18207;32.078;34.818;2024-01-30T04:45:22;101300.91;;;18.86;48.51
23619;BME280;18207;32.078;34.818;2024-01-30T04:47:52;101315.94;;;18.85;48.11
23619;BME280;18207;32.078;34.818;2024-01-30T04:50:22;101314.28;;;18.84;48.57
23619;BME280;18207;32.078;34.818;2024-01-30T04:52:54;101314.28;;;18.84;48.27
23619;BME280;18207;32.078;34.818;2024-01-30T04:55:23;101324.09;;;18.82;48.26
23619;BME280;18207;32.078;34.818;2024-01-30T04:57:53;101328.81;;;18.81;48.18
23619;BME280;18207;32.078;34.818;2024-01-30T05:00:22;101318.34;;;18.78;48.52
23619;BME280;18207;32.078;34.818;2024-01-30T05:02:52;101318.63;;;18.77;48.17
23619;BME280;18207;32.078;34.818;2024-01-30T05:05:22;101320.91;;;18.75;48.71
23619;BME280;18207;32.078;34.818;2024-01-30T05:07:53;101314.81;;;18.73;48.45
23619;BME280;18207;32.078;34.818;2024-01-30T05:10:23;101311.53;;;18.71;48.43
23619;BME280;18207;32.078;34.818;2024-01-30T05:12:52;101321.00;;;18.70;48.48
23619;BME280;18207;32.078;34.818;2024-01-30T05:15:22;101331.63;;;18.68;48.27
23619;BME280;18207;32.078;34.818;2024-01-30T05:17:51;101329.47;;;18.65;48.66
23619;BME280;18207;32.078;34.818;2024-01-30T05:20:21;101325.03;;;18.64;48.63
23619;BME280;18207;32.078;34.818;2024-01-30T05:22:53;101328.94;;;18.63;48.67
23619;BME280;18207;32.078;34.818;2024-01-30T05:25:22;101340.69;;;18.60;48.55
23619;BME280;18207;32.078;34.818;2024-01-30T05:27:52;101340.69;;;18.60;48.10
23619;BME280;18207;32.078;34.818;2024-01-30T05:30:23;101352.63;;;18.60;48.46
23619;BME280;18207;32.078;34.818;2024-01-30T05:32:53;101349.84;;;18.60;48.25
23619;BME280;18207;32.078;34.818;2024-01-30T05:35:22;101353.16;;;18.62;48.68
23619;BME280;18207;32.078;34.818;2024-01-30T05:37:54;101350.91;;;18.64;48.23
23619;BME280;18207;32.078;34.818;2024-01-30T05:40:23;101349.44;;;18.67;48.59
23619;BME280;18207;32.078;34.818;2024-01-30T05:42:53;101354.41;;;18.70;48.43
23619;BME280;18207;32.078;34.818;2024-01-30T05:45:23;101358.25;;;18.74;48.18
23619;BME280;18207;32.078;34.818;2024-01-30T05:47:53;101358.13;;;18.79;48.63
23619;BME280;18207;32.078;34.818;2024-01-30T05:50:23;101351.94;;;18.82;48.50
23619;BME280;18207;32.078;34.818;2024-01-30T05:52:56;101351.31;;;18.85;48.19
23619;BME280;18207;32.078;34.818;2024-01-30T05:55:26;101357.91;;;18.88;48.27
23619;BME280;18207;32.078;34.818;2024-01-30T05:57:55;101364.22;;;18.94;48.14
23619;BME280;18207;32.078;34.818;2024-01-30T06:00:25;101358.56;;;18.99;48.24
23619;BME280;18207;32.078;34.818;2024-01-30T06:02:55;101373.69;;;19.06;48.79
23619;BME280;18207;32.078;34.818;2024-01-30T06:05:24;101365.78;;;19.13;48.75
23619;BME280;18207;32.078;34.818;2024-01-30T06:07:56;101369.50;;;19.22;48.52
23619;BME280;18207;32.078;34.818;2024-01-30T06:10:25;101366.78;;;19.31;48.35
23619;BME280;18207;32.078;34.818;2024-01-30T06:12:55;101366.56;;;19.41;48.37
23619;BME280;18207;32.078;34.818;2024-01-30T06:15:24;101375.53;;;19.51;48.52
23619;BME280;18207;32.078;34.818;2024-01-30T06:17:54;101383.97;;;19.60;48.83
23619;BME280;18207;32.078;34.818;2024-01-30T06:20:24;101387.34;;;19.70;48.46
23619;BME280;18207;32.078;34.818;2024-01-30T06:22:55;101388.78;;;19.81;48.29
23619;BME280;18207;32.078;34.818;2024-01-30T06:25:25;101388.53;;;19.91;48.68
23619;BME280;18207;32.078;34.818;2024-01-30T06:27:55;101381.91;;;20.00;48.61
23619;BME280;18207;32.078;34.818;2024-01-30T06:30:25;101386.72;;;20.08;48.33
23619;BME280;18207;32.078;34.818;2024-01-30T06:32:54;101395.66;;;20.19;48.20
23619;BME280;18207;32.078;34.818;2024-01-30T06:35:25;101392.91;;;20.27;48.20
23619;BME280;18207;32.078;34.818;2024-01-30T06:37:58;101390.81;;;20.33;48.13
23619;BME280;18207;32.078;34.818;2024-01-30T06:40:28;101381.50;;;20.37;48.20
23619;BME280;18207;32.078;34.818;2024-01-30T06:42:57;101393.34;;;20.43;47.75
23619;BME280;18207;32.078;34.818;2024-01-30T06:45:27;101389.94;;;20.46;47.73
23619;BME280;18207;32.078;34.818;2024-01-30T06:47:57;101387.84;;;20.51;47.76
23619;BME280;18207;32.078;34.818;2024-01-30T06:50:26;101381.28;;;20.56;47.83
23619;BME280;18207;32.078;34.818;2024-01-30T06:52:58;101391.16;;;20.62;47.75
23619;BME280;18207;32.078;34.818;2024-01-30T06:55:28;101389.72;;;20.64;47.90
23619;BME280;18207;32.078;34.818;2024-01-30T06:57:57;101390.19;;;20.66;47.52
23619;BME280;18207;32.078;34.818;2024-01-30T07:00:27;101388.75;;;20.68;47.80
23619;BME280;18207;32.078;34.818;2024-01-30T07:02:57;101385.31;;;20.71;47.95
23619;BME280;18207;32.078;34.818;2024-01-30T07:05:26;101387.13;;;20.76;47.79
23619;BME280;18207;32.078;34.818;2024-01-30T07:07:57;101388.69;;;20.82;47.96
23619;BME280;18207;32.078;34.818;2024-01-30T07:10:27;101385.44;;;20.88;47.67
23619;BME280;18207;32.078;34.818;2024-01-30T07:12:57;101394.16;;;20.95;47.57
23619;BME280;18207;32.078;34.818;2024-01-30T07:15:27;101401.75;;;21.03;47.97
23619;BME280;18207;32.078;34.818;2024-01-30T07:17:56;101405.22;;;21.09;47.80
23619;BME280;18207;32.078;34.818;2024-01-30T07:20:26;101408.19;;;21.12;47.47
23619;BME280;18207;32.078;34.818;2024-01-30T07:23:00;101405.56;;;21.16;47.49
23619;BME280;18207;32.078;34.818;2024-01-30T07:25:30;101404.59;;;21.20;47.42
23619;BME280;18207;32.078;34.818;2024-01-30T07:27:59;101401.69;;;21.25;47.63
23619;BME280;18207;32.078;34.818;2024-01-30T07:30:29;101422.44;;;21.33;47.43
23619;BME280;18207;32.078;34.818;2024-01-30T07:32:58;101419.63;;;21.41;47.61
23619;BME280;18207;32.078;34.818;2024-01-30T07:35:28;101420.81;;;21.49;47.14
23619;BME280;18207;32.078;34.818;2024-01-30T07:38:00;101409.69;;;21.57;47.62
23619;BME280;18207;32.078;34.818;2024-01-30T07:40:29;101425.66;;;21.65;47.27
23619;BME280;18207;32.078;34.818;2024-01-30T07:43:01;101416.09;;;21.74;47.76
23619;BME280;18207;32.078;34.818;2024-01-30T07:45:31;101415.31;;;21.82;47.33
23619;BME280;18207;32.078;34.818;2024-01-30T07:48:01;101416.47;;;21.90;47.13
23619;BME280;18207;32.078;34.818;2024-01-30T07:50:31;101408.41;;;21.97;47.13
23619;BME280;18207;32.078;34.818;2024-01-30T07:53:03;101415.66;;;22.06;47.28
23619;BME280;18207;32.078;34.818;2024-01-30T07:55:33;101419.59;;;22.14;47.33
23619;BME280;18207;32.078;34.818;2024-01-30T07:58:03;101426.34;;;22.21;47.18
23619;BME280;18207;32.078;34.818;2024-01-30T08:00:33;101415.81;;;22.27;47.11
23619;BME280;18207;32.078;34.818;2024-01-30T08:03:03;101409.72;;;22.33;46.97
23619;BME280;18207;32.078;34.818;2024-01-30T08:05:32;101407.91;;;22.37;46.66
23619;BME280;18207;32.078;34.818;2024-01-30T08:08:04;101407.56;;;22.39;46.64
23619;BME280;18207;32.078;34.818;2024-01-30T08:10:34;101414.81;;;22.40;46.39
23619;BME280;18207;32.078;34.818;2024-01-30T08:13:06;101412.03;;;22.40;46.07
23619;BME280;18207;32.078;34.818;2024-01-30T08:15:37;101407.56;;;22.39;46.09
23619;BME280;18207;32.078;34.818;2024-01-30T08:18:07;101411.22;;;22.39;46.15
23619;BME280;18207;32.078;34.818;2024-01-30T08:20:37;101410.38;;;22.39;46.23
23619;BME280;18207;32.078;34.818;2024-01-30T08:23:09;101412.88;;;22.40;46.11
23619;BME280;18207;32.078;34.818;2024-01-30T08:25:38;101403.78;;;22.43;46.11
23619;BME280;18207;32.078;34.818;2024-01-30T08:28:08;101409.56;;;22.46;45.96
23619;BME280;18207;32.078;34.818;2024-01-30T08:30:38;101415.31;;;22.50;46.12
23619;BME280;18207;32.078;34.818;2024-01-30T08:33:08;101405.56;;;22.56;46.06
23619;BME280;18207;32.078;34.818;2024-01-30T08:35:37;101410.66;;;22.62;46.10
23619;BME280;18207;32.078;34.818;2024-01-30T08:38:09;101406.53;;;22.68;45.93
23619;BME280;18207;32.078;34.818;2024-01-30T08:40:40;101408.81;;;22.75;45.62
23619;BME280;18207;32.078;34.818;2024-01-30T08:43:16;101409.47;;;22.80;45.93
23619;BME280;18207;32.078;34.818;2024-01-30T08:45:46;101400.03;;;22.85;45.59
23619;BME280;18207;32.078;34.818;2024-01-30T08:48:15;101404.31;;;22.91;45.47
23619;BME280;18207;32.078;34.818;2024-01-30T08:50:45;101412.19;;;22.97;45.46
23619;BME280;18207;32.078;34.818;2024-01-30T08:53:17;101406.41;;;23.02;45.19
23619;BME280;18207;32.078;34.818;2024-01-30T08:55:47;101404.28;;;23.08;45.17
23619;BME280;18207;32.078;34.818;2024-01-30T08:58:17;101389.25;;;23.12;44.86
23619;BME280;18207;32.078;34.818;2024-01-30T09:00:47;101394.19;;;23.15;45.08
23619;BME280;18207;32.078;34.818;2024-01-30T09:03:17;101394.19;;;23.15;44.61
23619;BME280;18207;32.078;34.818;2024-01-30T09:05:47;101404.56;;;23.15;44.47
23619;BME280;18207;32.078;34.818;2024-01-30T09:08:18;101388.91;;;23.14;44.66
23619;BME280;18207;32.078;34.818;2024-01-30T09:10:48;101382.81;;;23.12;44.45
23619;BME280;18207;32.078;34.818;2024-01-30T09:13:21;101380.34;;;23.10;44.52
23619;BME280;18207;32.078;34.818;2024-01-30T09:15:51;101392.72;;;23.09;44.67
23619;BME280;18207;32.078;34.818;2024-01-30T09:18:21;101390.25;;;23.08;44.42
23619;BME280;18207;32.078;34.818;2024-01-30T09:20:50;101373.75;;;23.06;44.48
23619;BME280;18207;32.078;34.818;2024-01-30T09:23:22;101382.84;;;23.03;44.21
23619;BME280;18207;32.078;34.818;2024-01-30T09:25:51;101379.53;;;23.01;44.43
23619;BME280;18207;32.078;34.818;2024-01-30T09:28:21;101387.81;;;22.98;44.10
23619;BME280;18207;32.078;34.818;2024-01-30T09:30:54;101381.56;;;22.92;44.09
23619;BME280;18207;32.078;34.818;2024-01-30T09:33:24;101392.63;;;22.89;44.05
23619;BME280;18207;32.078;34.818;2024-01-30T09:35:55;101385.22;;;22.84;44.18
23619;BME280;18207;32.078;34.818;2024-01-30T09:38:26;101391.84;;;22.80;43.98
23619;BME280;18207;32.078;34.818;2024-01-30T09:40:57;101375.53;;;22.73;44.03
23619;BME280;18207;32.078;34.818;2024-01-30T09:43:33;101387.41;;;22.70;44.19
23619;BME280;18207;32.078;34.818;2024-01-30T09:46:03;101370.44;;;22.67;43.95
23619;BME280;18207;32.078;34.818;2024-01-30T09:48:35;101367.16;;;22.65;43.86
23619;BME280;18207;32.078;34.818;2024-01-30T09:51:06;101367.50;;;22.63;43.92
23619;BME280;18207;32.078;34.818;2024-01-30T09:53:41;101355.78;;;22.61;43.86
23619;BME280;18207;32.078;34.818;2024-01-30T09:56:12;101369.31;;;22.59;43.71
23619;BME280;18207;32.078;34.818;2024-01-30T09:58:42;101353.19;;;22.56;43.82
23619;BME280;18207;32.078;34.818;2024-01-30T10:01:11;101360.25;;;22.54;44.04
23619;BME280;18207;32.078;34.818;2024-01-30T10:03:41;101346.44;;;22.49;43.78
23619;BME280;18207;32.078;34.818;2024-01-30T10:06:12;101363.41;;;22.44;43.56
23619;BME280;18207;32.078;34.818;2024-01-30T10:08:43;101364.41;;;22.40;43.30
23619;BME280;18207;32.078;34.818;2024-01-30T10:11:13;101353.41;;;22.35;43.78
23619;BME280;18207;32.078;34.818;2024-01-30T10:13:42;101353.25;;;22.31;43.47
23619;BME280;18207;32.078;34.818;2024-01-30T10:16:14;101346.28;;;22.29;43.21
23619;BME280;18207;32.078;34.818;2024-01-30T10:18:57;101346.97;;;22.26;43.54
23619;BME280;18207;32.078;34.818;2024-01-30T10:21:27;101362.13;;;22.25;43.63
23619;BME280;18207;32.078;34.818;2024-01-30T10:24:07;101342.84;;;22.23;43.51
23619;BME280;18207;32.078;34.818;2024-01-30T10:26:38;101336.75;;;22.21;43.71
23619;BME280;18207;32.078;34.818;2024-01-30T10:29:10;101340.72;;;22.20;43.31
23619;BME280;18207;32.078;34.818;2024-01-30T10:31:40;101341.03;;;22.19;43.08
23619;BME280;18207;32.078;34.818;2024-01-30T10:34:10;101327.38;;;22.17;43.53
23619;BME280;18207;32.078;34.818;2024-01-30T10:36:59;101344.50;;;22.16;43.40
23619;BME280;18207;32.078;34.818;2024-01-30T10:39:37;101327.22;;;22.14;42.93
23619;BME280;18207;32.078;34.818;2024-01-30T10:42:12;101336.78;;;22.13;43.21
23619;BME280;18207;32.078;34.818;2024-01-30T10:44:56;101327.88;;;22.11;42.89
23619;BME280;18207;32.078;34.818;2024-01-30T10:47:28;101324.56;;;22.09;43.11
23619;BME280;18207;32.078;34.818;2024-01-30T10:49:59;101320.47;;;22.06;42.93
23619;BME280;18207;32.078;34.818;2024-01-30T10:52:32;101324.75;;;22.04;43.04
23619;BME280;18207;32.078;34.818;2024-01-30T10:55:05;101319.50;;;22.02;42.72
23619;BME280;18207;32.078;34.818;2024-01-30T10:57:36;101304.19;;;22.00;42.99
23619;BME280;18207;32.078;34.818;2024-01-30T11:00:09;101315.72;;;21.98;43.11
23619;BME280;18207;32.078;34.818;2024-01-30T11:02:43;101320.47;;;21.98;42.83
23619;BME280;18207;32.078;34.818;2024-01-30T11:05:13;101316.06;;;21.97;42.90
23619;BME280;18207;32.078;34.818;2024-01-30T11:07:44;101321.97;;;21.95;42.83
23619;BME280;18207;32.078;34.818;2024-01-30T11:10:15;101323.13;;;21.94;42.47
23619;BME280;18207;32.078;34.818;2024-01-30T11:12:46;101315.06;;;21.93;42.64
23619;BME280;18207;32.078;34.818;2024-01-30T11:15:19;101321.00;;;21.91;42.76
23619;BME280;18207;32.078;34.818;2024-01-30T11:17:51;101314.56;;;21.91;42.66
23619;BME280;18207;32.078;34.818;2024-01-30T11:20:27;101306.50;;;21.89;42.51
23619;BME280;18207;32.078;34.818;2024-01-30T11:22:58;101310.47;;;21.88;42.38
23619;BME280;18207;32.078;34.818;2024-01-30T11:25:32;101308.00;;;21.87;42.54
23619;BME280;18207;32.078;34.818;2024-01-30T11:28:02;101307.16;;;21.86;42.47
23619;BME280;18207;32.078;34.818;2024-01-30T11:30:34;101314.75;;;21.86;42.79
23619;BME280;18207;32.078;34.818;2024-01-30T11:33:06;101311.13;;;21.85;41.97
23619;BME280;18207;32.078;34.818;2024-01-30T11:35:38;101327.09;;;21.85;42.55
23619;BME280;18207;32.078;34.818;2024-01-30T11:38:09;101315.41;;;21.83;42.63
23619;BME280;18207;32.078;34.818;2024-01-30T11:40:41;101328.59;;;21.82;42.74
23619;BME280;18207;32.078;34.818;2024-01-30T11:43:11;101330.88;;;21.80;42.17
23619;BME280;18207;32.078;34.818;2024-01-30T11:45:41;101331.19;;;21.79;42.42
23619;BME280;18207;32.078;34.818;2024-01-30T11:48:12;101327.59;;;21.78;42.38
23619;BME280;18207;32.078;34.818;2024-01-30T11:50:43;101325.13;;;21.77;42.21
23619;BME280;18207;32.078;34.818;2024-01-30T11:53:14;101317.88;;;21.76;42.16
23619;BME280;18207;32.078;34.818;2024-01-30T11:56:06;101321.81;;;21.75;42.17
23619;BME280;18207;32.078;34.818;2024-01-30T11:58:36;101318.53;;;21.73;42.23
23619;BME280;18207;32.078;34.818;2024-01-30T12:01:06;101325.28;;;21.72;42.59
23619;BME280;18207;32.078;34.818;2024-01-30T12:03:36;101316.06;;;21.71;42.31
23619;BME280;18207;32.078;34.818;2024-01-30T12:06:06;101330.38;;;21.70;42.11
23619;BME280;18207;32.078;34.818;2024-01-30T12:08:36;101316.38;;;21.70;41.92
23619;BME280;18207;32.078;34.818;2024-01-30T12:11:09;101327.09;;;21.68;41.95
23619;BME280;18207;32.078;34.818;2024-01-30T12:13:38;101334.66;;;21.67;42.10
23619;BME280;18207;32.078;34.818;2024-01-30T12:16:08;101305.88;;;21.67;41.78
23619;BME280;18207;32.078;34.818;2024-01-30T12:18:38;101321.00;;;21.66;42.04
23619;BME280;18207;32.078;34.818;2024-01-30T12:21:07;101325.75;;;21.65;42.33
23619;BME280;18207;32.078;34.818;2024-01-30T12:23:38;101310.97;;;21.65;41.87
23619;BME280;18207;32.078;34.818;2024-01-30T12:26:10;101315.41;;;21.66;42.31
23619;BME280;18207;32.078;34.818;2024-01-30T12:28:48;101322.66;;;21.67;42.17
23619;BME280;18207;32.078;34.818;2024-01-30T12:31:18;101312.63;;;21.66;41.88
23619;BME280;18207;32.078;34.818;2024-01-30T12:34:00;101319.53;;;21.68;42.30
23619;BME280;18207;32.078;34.818;2024-01-30T12:36:30;101311.63;;;21.70;42.19
23619;BME280;18207;32.078;34.818;2024-01-30T12:39:01;101309.34;;;21.72;41.74
23619;BME280;18207;32.078;34.818;2024-01-30T12:41:33;101316.22;;;21.75;41.70
23619;BME280;18207;32.078;34.818;2024-01-30T12:44:03;101319.03;;;21.75;41.70
23619;BME280;18207;32.078;34.818;2024-01-30T12:46:35;101315.91;;;21.76;42.06
23619;BME280;18207;32.078;34.818;2024-01-30T12:49:04;101316.72;;;21.77;41.64
23619;BME280;18207;32.078;34.818;2024-01-30T12:51:35;101325.59;;;21.79;41.75
23619;BME280;18207;32.078;34.818;2024-01-30T12:54:06;101332.84;;;21.80;41.62
23619;BME280;18207;32.078;34.818;2024-01-30T12:56:37;101326.94;;;21.81;41.64
23619;BME280;18207;32.078;34.818;2024-01-30T12:59:07;101329.72;;;21.81;41.81